Eagle, Alaska
Current Conditions -  °F | °C
As of 11:53 AM on Monday 24 Nov 2014 (Local Time) from PAEG Reporting Station
Light Snow Light Snow  
Wind Chill:   Ceiling: 1600
Heat Index: 15°   Visibility: 6mi
Dew Point:   Wind: 10mph
Humidity: 70%   Direction: 140°SE
Pressure: 29.83"   Gusts: 20mph
Location:  64.78°N, 141.21°W
Report Text: PAEG 242053Z AUTO 14009G17KT 6SM -SN OVC016 M09/M14 A2983 RMK AO2 SNB02 SLP120 P0000 60000 T10941139 52012 TSNO
Loading
Personal Weather Stations






























Interactive Weather Map New forecast layout! Learn more

10-Day Weather Forecast

Advertisements
Track Severe Weather on mobile